Time;durP1;ratioP1;P1;durP2;ratioP2;P2;SDS_P1;SDS_P2;PMS_P1;PMS_P2;Temp;Humidity;BMP_temperature;BMP_pressure;BME280_temperature;BME280_humidity;BME280_pressure;Samples;Min_cycle;Max_cycle;Signal;HPM_P1;HPM_P2
2023/09/08 00:01:00;;;;;;;0.60;0.60;;;;;;;;;;5013834;28;20029;-83
2023/09/08 00:03:26;;;;;;;0.50;0.50;;;;;;;;;;5014791;28;20427;-83
2023/09/08 00:05:52;;;;;;;0.70;0.70;;;;;;;;;;5013839;28;20109;-82
2023/09/08 00:08:19;;;;;;;0.57;0.57;;;;;;;;;;5013949;28;20030;-90
2023/09/08 00:10:53;;;;;;;0.57;0.57;;;;;;;;;;5016616;28;20471;-88
2023/09/08 00:13:20;;;;;;;0.65;0.65;;;;;;;;;;5016867;28;20763;-87
2023/09/08 00:15:51;;;;;;;0.88;0.80;;;;;;;;;;5017001;28;20026;-89
2023/09/08 00:18:18;;;;;;;0.50;0.50;;;;;;;;;;5016964;28;20025;-86
2023/09/08 00:20:51;;;;;;;0.40;0.40;;;;;;;;;;5016414;28;20030;-89
2023/09/08 00:23:18;;;;;;;0.63;0.63;;;;;;;;;;5015646;28;20049;-83
2023/09/08 00:25:50;;;;;;;0.50;0.50;;;;;;;;;;5016398;28;20088;-88
2023/09/08 00:28:16;;;;;;;0.63;0.63;;;;;;;;;;5016419;28;20030;-84
2023/09/08 00:30:44;;;;;;;0.50;0.50;;;;;;;;;;5015605;28;20464;-88
2023/09/08 00:33:19;;;;;;;0.50;0.50;;;;;;;;;;5015471;28;20391;-90
2023/09/08 00:35:46;;;;;;;0.50;0.50;;;;;;;;;;5014935;28;20032;-84
2023/09/08 00:38:13;;;;;;;0.65;0.65;;;;;;;;;;5016383;28;20030;-89
2023/09/08 00:40:39;;;;;;;0.82;0.82;;;;;;;;;;5016771;28;20026;-86
2023/09/08 00:43:06;;;;;;;0.50;0.50;;;;;;;;;;5015776;28;20022;-84
2023/09/08 00:45:34;;;;;;;0.73;0.73;;;;;;;;;;5016085;28;20030;-85
2023/09/08 00:48:00;;;;;;;0.60;0.60;;;;;;;;;;5013351;28;20040;-82
2023/09/08 00:50:26;;;;;;;0.40;0.40;;;;;;;;;;5013137;28;20029;-83
2023/09/08 00:52:53;;;;;;;0.50;0.50;;;;;;;;;;5012961;28;20356;-83
2023/09/08 00:55:19;;;;;;;0.63;0.63;;;;;;;;;;5013024;28;20053;-83
2023/09/08 00:57:45;;;;;;;0.60;0.60;;;;;;;;;;5013592;28;20030;-82
2023/09/08 01:00:11;;;;;;;0.63;0.63;;;;;;;;;;5013010;28;20022;-83
2023/09/08 01:02:37;;;;;;;0.40;0.40;;;;;;;;;;5013966;28;20104;-83
2023/09/08 01:05:04;;;;;;;0.60;0.60;;;;;;;;;;5014019;28;20026;-83
2023/09/08 01:07:31;;;;;;;0.68;0.68;;;;;;;;;;5012924;28;20030;-82
2023/09/08 01:09:57;;;;;;;0.70;0.70;;;;;;;;;;5012777;28;20026;-83
2023/09/08 01:12:24;;;;;;;0.70;0.70;;;;;;;;;;5013694;28;20057;-83
2023/09/08 01:14:50;;;;;;;0.70;0.70;;;;;;;;;;5013543;28;20042;-82
2023/09/08 01:17:16;;;;;;;0.60;0.60;;;;;;;;;;5012698;28;20124;-82
2023/09/08 01:19:43;;;;;;;0.50;0.50;;;;;;;;;;5012736;28;20072;-82
2023/09/08 01:22:09;;;;;;;0.50;0.50;;;;;;;;;;5012800;28;20033;-82
2023/09/08 01:24:42;;;;;;;0.88;0.55;;;;;;;;;;5012922;28;20026;-82
2023/09/08 01:27:08;;;;;;;0.50;0.50;;;;;;;;;;5013342;28;20084;-83
2023/09/08 01:29:35;;;;;;;0.95;0.80;;;;;;;;;;5012846;28;20395;-82
2023/09/08 01:32:01;;;;;;;0.90;0.90;;;;;;;;;;5012642;28;20026;-84
2023/09/08 01:34:27;;;;;;;0.73;0.73;;;;;;;;;;5014327;28;20022;-83
2023/09/08 01:36:53;;;;;;;0.88;0.88;;;;;;;;;;5016932;28;20369;-83
2023/09/08 01:39:19;;;;;;;0.40;0.40;;;;;;;;;;5016492;28;20383;-83
2023/09/08 01:41:46;;;;;;;0.65;0.65;;;;;;;;;;5016633;28;20026;-83
2023/09/08 01:44:12;;;;;;;0.50;0.50;;;;;;;;;;5017337;28;20367;-83
2023/09/08 01:46:39;;;;;;;0.60;0.60;;;;;;;;;;5016380;28;20029;-83
2023/09/08 01:49:05;;;;;;;0.50;0.50;;;;;;;;;;5016416;28;20080;-83
2023/09/08 01:51:31;;;;;;;0.52;0.52;;;;;;;;;;5016199;28;20056;-83
2023/09/08 01:53:57;;;;;;;0.60;0.60;;;;;;;;;;5016109;28;20046;-83
2023/09/08 01:56:23;;;;;;;0.47;0.47;;;;;;;;;;5017804;28;20053;-82
2023/09/08 01:58:49;;;;;;;0.50;0.50;;;;;;;;;;5017467;28;20036;-83
2023/09/08 02:01:15;;;;;;;0.60;0.60;;;;;;;;;;5016764;28;20018;-83
2023/09/08 02:03:41;;;;;;;0.60;0.60;;;;;;;;;;5016075;28;20029;-83
2023/09/08 02:06:08;;;;;;;0.50;0.50;;;;;;;;;;5017493;28;20041;-83
2023/09/08 02:08:34;;;;;;;0.57;0.57;;;;;;;;;;5016225;28;20116;-82
2023/09/08 02:11:00;;;;;;;0.60;0.60;;;;;;;;;;5017472;28;20025;-81
2023/09/08 02:13:26;;;;;;;3.20;1.27;;;;;;;;;;5015896;28;20093;-82
2023/09/08 02:15:52;;;;;;;0.65;0.65;;;;;;;;;;5016076;28;20026;-82
2023/09/08 02:18:18;;;;;;;0.43;0.43;;;;;;;;;;5016061;28;20385;-83
2023/09/08 02:20:45;;;;;;;0.65;0.65;;;;;;;;;;5015921;28;20493;-82
2023/09/08 02:23:11;;;;;;;0.82;0.82;;;;;;;;;;5017026;28;20451;-82
2023/09/08 02:25:37;;;;;;;0.60;0.60;;;;;;;;;;5016700;28;20068;-84
2023/09/08 02:28:03;;;;;;;0.50;0.50;;;;;;;;;;5016225;28;20025;-83
2023/09/08 02:30:29;;;;;;;0.50;0.50;;;;;;;;;;5015868;28;20183;-83
2023/09/08 02:32:55;;;;;;;0.65;0.65;;;;;;;;;;5015329;28;20083;-81
2023/09/08 02:35:22;;;;;;;0.60;0.60;;;;;;;;;;5015584;28;20114;-81
2023/09/08 02:37:48;;;;;;;0.50;0.50;;;;;;;;;;5015594;28;20486;-82
2023/09/08 02:40:14;;;;;;;0.60;0.60;;;;;;;;;;5015262;28;20026;-82
2023/09/08 02:42:41;;;;;;;0.60;0.60;;;;;;;;;;5015514;28;20018;-82
2023/09/08 02:45:07;;;;;;;0.50;0.50;;;;;;;;;;5014966;28;20026;-82
2023/09/08 02:47:33;;;;;;;0.60;0.60;;;;;;;;;;5014377;28;20053;-83
2023/09/08 02:49:59;;;;;;;0.68;0.68;;;;;;;;;;5016001;28;20458;-82
2023/09/08 02:52:25;;;;;;;0.68;0.68;;;;;;;;;;5015340;28;20028;-82
2023/09/08 02:54:51;;;;;;;0.50;0.50;;;;;;;;;;5014926;28;20050;-82
2023/09/08 02:57:17;;;;;;;0.73;0.70;;;;;;;;;;5015064;28;20022;-82
2023/09/08 02:59:49;;;;;;;0.50;0.50;;;;;;;;;;5015390;28;20045;-81
2023/09/08 03:02:15;;;;;;;0.50;0.50;;;;;;;;;;5014987;28;20018;-82
2023/09/08 03:04:41;;;;;;;1.02;0.98;;;;;;;;;;5014964;28;20029;-82
2023/09/08 03:07:07;;;;;;;0.63;0.60;;;;;;;;;;5016154;28;20030;-82
2023/09/08 03:09:34;;;;;;;0.50;0.50;;;;;;;;;;5014740;28;20030;-82
2023/09/08 03:12:00;;;;;;;0.50;0.50;;;;;;;;;;5014845;28;20018;-81
2023/09/08 03:14:26;;;;;;;0.57;0.57;;;;;;;;;;5014720;28;20022;-81
2023/09/08 03:16:52;;;;;;;0.80;0.70;;;;;;;;;;5031884;28;20010;-82
2023/09/08 03:19:19;;;;;;;0.55;0.55;;;;;;;;;;5033874;28;20054;-82
2023/09/08 03:21:45;;;;;;;0.63;0.63;;;;;;;;;;5028267;28;20116;-82
2023/09/08 03:24:11;;;;;;;0.60;0.60;;;;;;;;;;5025226;28;20037;-82
2023/09/08 03:26:37;;;;;;;0.50;0.50;;;;;;;;;;5014664;28;20030;-82
2023/09/08 03:29:03;;;;;;;0.52;0.52;;;;;;;;;;5016191;28;20437;-81
2023/09/08 03:31:29;;;;;;;0.50;0.50;;;;;;;;;;5014321;28;20037;-83
2023/09/08 03:33:55;;;;;;;0.68;0.68;;;;;;;;;;5015848;28;20084;-82
2023/09/08 03:36:22;;;;;;;0.50;0.50;;;;;;;;;;5014376;28;20026;-81
2023/09/08 03:38:48;;;;;;;0.50;0.50;;;;;;;;;;5015164;28;20100;-81
2023/09/08 03:41:15;;;;;;;0.70;0.70;;;;;;;;;;5014353;28;20471;-82
2023/09/08 03:43:41;;;;;;;0.60;0.60;;;;;;;;;;5014442;28;20030;-83
2023/09/08 03:46:07;;;;;;;0.60;0.60;;;;;;;;;;5015247;28;20030;-82
2023/09/08 03:48:33;;;;;;;0.80;0.80;;;;;;;;;;5015492;28;20026;-83
2023/09/08 03:51:00;;;;;;;0.63;0.63;;;;;;;;;;5019203;28;20030;-83
2023/09/08 03:53:26;;;;;;;0.50;0.50;;;;;;;;;;5017025;28;20045;-82
2023/09/08 03:55:52;;;;;;;0.52;0.52;;;;;;;;;;5017600;28;20036;-81
2023/09/08 03:58:18;;;;;;;0.60;0.60;;;;;;;;;;5017169;28;20017;-81
2023/09/08 04:00:44;;;;;;;0.63;0.60;;;;;;;;;;5017120;28;20072;-82
2023/09/08 04:03:10;;;;;;;0.60;0.60;;;;;;;;;;5017604;28;20025;-82
2023/09/08 04:05:36;;;;;;;0.75;0.75;;;;;;;;;;5016965;28;20463;-81
2023/09/08 04:08:03;;;;;;;0.75;0.75;;;;;;;;;;5017098;28;20026;-82
2023/09/08 04:10:29;;;;;;;0.50;0.50;;;;;;;;;;5017102;28;20080;-82
2023/09/08 04:12:55;;;;;;;0.63;0.63;;;;;;;;;;5017126;28;20022;-82
2023/09/08 04:15:22;;;;;;;0.98;0.70;;;;;;;;;;5017007;28;20029;-82
2023/09/08 04:17:48;;;;;;;1.13;0.88;;;;;;;;;;5017066;28;20113;-82
2023/09/08 04:20:14;;;;;;;0.60;0.60;;;;;;;;;;5016842;28;20071;-83
2023/09/08 04:22:41;;;;;;;0.60;0.60;;;;;;;;;;5017596;28;20463;-82
2023/09/08 04:25:07;;;;;;;0.47;0.47;;;;;;;;;;5016982;28;20049;-83
2023/09/08 04:27:35;;;;;;;0.70;0.70;;;;;;;;;;5016703;28;20398;-83
2023/09/08 04:30:01;;;;;;;0.50;0.50;;;;;;;;;;5017104;28;20536;-84
2023/09/08 04:32:27;;;;;;;0.60;0.60;;;;;;;;;;5034435;28;20036;-83
2023/09/08 04:34:53;;;;;;;0.60;0.60;;;;;;;;;;5016602;28;20025;-84
2023/09/08 04:37:19;;;;;;;0.60;0.60;;;;;;;;;;5016854;28;20121;-83
2023/09/08 04:39:45;;;;;;;1.15;0.85;;;;;;;;;;5016739;28;20116;-83
2023/09/08 04:42:12;;;;;;;0.50;0.50;;;;;;;;;;5016823;28;20466;-84
2023/09/08 04:44:38;;;;;;;0.70;0.70;;;;;;;;;;5017455;28;20025;-83
2023/09/08 04:47:05;;;;;;;0.80;0.80;;;;;;;;;;5016433;28;20026;-84
2023/09/08 04:49:31;;;;;;;0.63;0.63;;;;;;;;;;5017366;28;20025;-84
2023/09/08 04:51:57;;;;;;;0.65;0.65;;;;;;;;;;5016679;28;20107;-83
2023/09/08 04:54:26;;;;;;;0.65;0.65;;;;;;;;;;5016540;28;20049;-83
2023/09/08 04:56:53;;;;;;;0.70;0.70;;;;;;;;;;5034283;28;20026;-83
2023/09/08 04:59:19;;;;;;;0.73;0.60;;;;;;;;;;5016672;28;20021;-83
2023/09/08 05:01:46;;;;;;;0.60;0.60;;;;;;;;;;5016402;28;20025;-85
2023/09/08 05:04:12;;;;;;;0.80;0.77;;;;;;;;;;5016735;28;20060;-84
2023/09/08 05:06:38;;;;;;;0.50;0.50;;;;;;;;;;5016415;28;20031;-84
2023/09/08 05:09:04;;;;;;;0.65;0.65;;;;;;;;;;5015909;28;20095;-82
2023/09/08 05:11:30;;;;;;;0.65;0.65;;;;;;;;;;5017069;28;20025;-83
2023/09/08 05:13:57;;;;;;;0.65;0.65;;;;;;;;;;5016423;28;20375;-83
2023/09/08 05:16:37;;;;;;;0.80;0.80;;;;;;;;;;5016212;28;20051;-83
2023/09/08 05:19:06;;;;;;;0.60;0.60;;;;;;;;;;5016359;28;20028;-84
2023/09/08 05:21:32;;;;;;;0.60;0.60;;;;;;;;;;5016097;28;20030;-85
2023/09/08 05:23:58;;;;;;;0.70;0.70;;;;;;;;;;5016210;28;20025;-84
2023/09/08 05:26:24;;;;;;;0.70;0.70;;;;;;;;;;5016161;28;20029;-84
2023/09/08 05:28:51;;;;;;;0.60;0.60;;;;;;;;;;5034215;28;20060;-82
2023/09/08 05:31:17;;;;;;;0.60;0.60;;;;;;;;;;5016685;28;20100;-83
2023/09/08 05:33:43;;;;;;;0.60;0.60;;;;;;;;;;5017659;28;20045;-82
2023/09/08 05:36:09;;;;;;;0.52;0.52;;;;;;;;;;5016378;28;20029;-83
2023/09/08 05:38:35;;;;;;;0.80;0.80;;;;;;;;;;5020307;28;20025;-82
2023/09/08 05:41:02;;;;;;;0.60;0.60;;;;;;;;;;5051082;28;20027;-82
2023/09/08 05:43:28;;;;;;;0.57;0.57;;;;;;;;;;5034556;28;20124;-82
2023/09/08 05:45:54;;;;;;;1.35;0.82;;;;;;;;;;5027150;28;20057;-83
2023/09/08 05:48:20;;;;;;;0.75;0.75;;;;;;;;;;5021008;28;20080;-83
2023/09/08 05:50:47;;;;;;;0.70;0.70;;;;;;;;;;5016067;28;20028;-83
2023/09/08 05:53:13;;;;;;;0.57;0.57;;;;;;;;;;5016317;28;20053;-82
2023/09/08 05:55:39;;;;;;;0.82;0.82;;;;;;;;;;5016617;28;20494;-83
2023/09/08 05:58:07;;;;;;;0.50;0.50;;;;;;;;;;5015644;28;20025;-82
2023/09/08 06:00:33;;;;;;;0.60;0.60;;;;;;;;;;5016041;28;20061;-83
2023/09/08 06:02:59;;;;;;;0.98;0.88;;;;;;;;;;5015702;28;20053;-83
2023/09/08 06:05:25;;;;;;;0.50;0.50;;;;;;;;;;5015531;28;20025;-82
2023/09/08 06:07:51;;;;;;;0.50;0.50;;;;;;;;;;5016248;28;20091;-82
2023/09/08 06:10:17;;;;;;;0.70;0.70;;;;;;;;;;5015577;28;20026;-82
2023/09/08 06:12:44;;;;;;;0.50;0.50;;;;;;;;;;5016192;28;20533;-83
2023/09/08 06:15:10;;;;;;;0.60;0.60;;;461.50;2380.80;;;;;;5015591;28;20075;-82
2023/09/08 06:17:35;;;;;;;0.70;0.63;;;461.50;2380.80;;;;;;5015197;28;20120;-82
2023/09/08 06:20:02;;;;;;;1.77;1.25;;;461.40;2380.80;;;;;;5015615;28;20026;-83
2023/09/08 06:22:28;;;;;;;0.55;0.55;;;;;;;;;;5018458;28;20022;-83
2023/09/08 06:24:54;;;;;;;0.60;0.60;;;;;;;;;;5019080;28;20111;-84
2023/09/08 06:27:20;;;;;;;0.80;0.80;;;;;;;;;;5019009;28;20029;-81
2023/09/08 06:29:46;;;;;;;0.50;0.50;;;;;;;;;;5019098;28;20406;-82
2023/09/08 06:32:12;;;;;;;0.93;0.85;;;;;;;;;;5018807;28;20031;-82
2023/09/08 06:34:38;;;;;;;0.50;0.50;;;;;;;;;;5018993;28;20108;-81
2023/09/08 06:37:05;;;;;;;0.70;0.70;;;;;;;;;;5018888;28;20072;-82
2023/09/08 06:39:30;;;;;;;0.80;0.60;;;486.60;2380.80;;;;;;5021254;28;20467;-83
2023/09/08 06:41:56;;;;;;;0.57;0.57;;;486.70;2380.80;;;;;;5026912;28;20060;-81
2023/09/08 06:44:22;;;;;;;0.40;0.40;;;486.70;2380.80;;;;;;5023228;28;20045;-82
2023/09/08 06:46:48;;;;;;;0.57;0.57;;;486.70;2380.80;;;;;;5024814;28;20041;-80
2023/09/08 06:49:14;;;;;;;0.50;0.50;;;486.90;2380.80;;;;;;5036240;28;20025;-82
2023/09/08 06:51:40;;;;;;;0.50;0.50;;;486.90;2380.80;;;;;;5018796;28;20036;-83
2023/09/08 06:54:05;;;;;;;0.75;0.70;;;487.00;2380.80;;;;;;5014795;28;20073;-82
2023/09/08 06:56:31;;;;;;;0.50;0.50;;;487.10;2380.80;;;;;;5015205;28;20026;-82
2023/09/08 06:59:00;;;;;;;0.40;0.40;;;487.20;2380.80;;;;;;5015269;28;20029;-82
2023/09/08 07:01:26;;;;;;;0.57;0.57;;;487.30;2380.80;;;;;;5015311;28;20084;-82
2023/09/08 07:03:52;;;;;;;1.55;0.98;;;;;;;;;;5015321;28;20030;-81
2023/09/08 07:06:18;;;;;;;0.55;0.55;;;;;;;;;;5015206;28;20026;-83
2023/09/08 07:08:44;;;;;;;0.50;0.50;;;;;;;;;;5015371;28;20065;-82
2023/09/08 07:11:10;;;;;;;0.65;0.65;;;;;;;;;;5015612;28;20375;-82
2023/09/08 07:13:36;;;;;;;0.77;0.77;;;;;;;;;;5016800;28;20426;-81
2023/09/08 07:16:03;;;;;;;0.60;0.60;;;;;;;;;;5016716;28;20168;-82
2023/09/08 07:18:32;;;;;;;0.50;0.50;;;;;;;;;;5017860;28;20479;-81
2023/09/08 07:20:58;;;;;;;0.60;0.60;;;;;;;;;;5014682;28;20029;-84
2023/09/08 07:23:24;;;;;;;0.50;0.50;;;;;;;;;;5014661;28;20053;-82
2023/09/08 07:25:50;;;;;;;0.68;0.68;;;;;;;;;;5014246;28;20522;-80
2023/09/08 07:28:17;;;;;;;0.63;0.60;;;;;;;;;;5014247;28;20026;-80
2023/09/08 07:30:43;;;;;;;0.50;0.50;;;;;;;;;;5014452;28;20022;-81
2023/09/08 07:33:09;;;;;;;0.45;0.45;;;;;;;;;;5014053;28;20100;-82
2023/09/08 07:35:39;;;;;;;0.40;0.40;;;;;;;;;;5014412;28;20037;-82
2023/09/08 07:38:06;;;;;;;0.45;0.45;;;;;;;;;;5014505;28;20018;-81
2023/09/08 07:40:35;;;;;;;0.50;0.50;;;;;;;;;;5014312;28;20144;-81
2023/09/08 07:43:02;;;;;;;0.55;0.52;;;;;;;;;;5014287;28;20133;-81
2023/09/08 07:45:28;;;;;;;0.43;0.43;;;;;;;;;;5015712;28;20030;-80
2023/09/08 07:47:54;;;;;;;0.70;0.70;;;;;;;;;;5014246;28;20041;-82
2023/09/08 07:50:25;;;;;;;0.50;0.50;;;;;;;;;;5014032;28;20026;-81
2023/09/08 07:52:51;;;;;;;0.70;0.70;;;;;;;;;;5014196;28;20092;-83
2023/09/08 07:55:18;;;;;;;0.30;0.30;;;;;;;;;;5013206;28;20128;-84
2023/09/08 07:57:45;;;;;;;0.60;0.60;;;;;;;;;;5019380;28;20056;-86
2023/09/08 08:00:12;;;;;;;0.50;0.50;;;;;;;;;;5023260;28;20463;-90
2023/09/08 08:02:49;;;;;;;0.40;0.40;;;;;;;;;;5022778;28;20098;-92
2023/09/08 08:05:15;;;;;;;0.47;0.47;;;;;;;;;;5027020;28;20048;-85
2023/09/08 08:07:42;;;;;;;0.43;0.43;;;;;;;;;;5036578;28;20116;-85
2023/09/08 08:10:09;;;;;;;0.40;0.40;;;;;;;;;;5033751;28;20057;-84
2023/09/08 08:12:35;;;;;;;0.82;0.57;;;;;;;;;;5033622;28;20556;-84
2023/09/08 08:15:02;;;;;;;0.57;0.57;;;;;;;;;;5033449;28;20033;-84
2023/09/08 08:17:29;;;;;;;0.60;0.50;;;;;;;;;;5033585;28;20112;-84
2023/09/08 08:19:56;;;;;;;0.43;0.43;;;;;;;;;;5033436;28;20057;-85
2023/09/08 08:22:22;;;;;;;0.30;0.30;;;;;;;;;;5033380;28;20569;-86
2023/09/08 08:24:48;;;;;;;0.40;0.40;;;;;;;;;;5033924;28;20072;-87
2023/09/08 08:27:14;;;;;;;1.00;0.52;;;;;;;;;;5033014;28;20053;-82
2023/09/08 08:29:40;;;;;;;0.32;0.32;;;;;;;;;;5023629;28;20532;-83
2023/09/08 08:32:07;;;;;;;0.75;0.60;;;;;;;;;;5032846;28;20475;-83
2023/09/08 08:34:33;;;;;;;0.40;0.40;;;;;;;;;;5014645;28;20113;-83
2023/09/08 08:36:59;;;;;;;0.40;0.40;;;;;;;;;;5016606;28;20037;-85
2023/09/08 08:39:25;;;;;;;0.98;0.55;;;;;;;;;;5032900;28;20112;-83
2023/09/08 08:41:51;;;;;;;0.32;0.32;;;;;;;;;;5032742;28;20030;-83
2023/09/08 08:44:18;;;;;;;0.40;0.40;;;;;;;;;;5031781;28;20026;-83
2023/09/08 08:46:45;;;;;;;0.40;0.40;;;;;;;;;;5032492;28;20544;-83
2023/09/08 08:49:12;;;;;;;0.45;0.45;;;;;;;;;;5032567;28;20025;-82
2023/09/08 08:51:38;;;;;;;0.45;0.40;;;;;;;;;;5032564;28;20021;-82
2023/09/08 08:54:05;;;;;;;0.38;0.38;;;;;;;;;;5015076;28;20084;-82
2023/09/08 08:56:36;;;;;;;0.30;0.30;;;;;;;;;;5012897;28;20029;-82
2023/09/08 08:59:03;;;;;;;0.82;0.60;;;;;;;;;;5012672;28;20022;-83
2023/09/08 09:01:29;;;;;;;0.50;0.50;;;;;;;;;;5012585;28;20018;-81
2023/09/08 09:03:56;;;;;;;0.55;0.45;;;;;;;;;;5012715;28;20037;-82
2023/09/08 09:06:22;;;;;;;0.40;0.40;;;;;;;;;;5012444;28;20026;-83
2023/09/08 09:08:48;;;;;;;0.30;0.30;;;;;;;;;;5013291;28;20022;-82
2023/09/08 09:11:14;;;;;;;0.55;0.50;;;;;;;;;;5012663;28;20025;-82
2023/09/08 09:13:41;;;;;;;0.40;0.40;;;;;;;;;;5013581;28;20311;-82
2023/09/08 09:16:10;;;;;;;0.30;0.30;;;;;;;;;;5012645;28;20022;-82
2023/09/08 09:18:56;;;;;;;0.70;0.60;;;;;;;;;;5012608;28;20026;-82
2023/09/08 09:21:23;;;;;;;0.88;0.50;;;;;;;;;;5011820;28;20026;-83
2023/09/08 09:23:49;;;;;;;0.50;0.50;;;;;;;;;;5012687;28;20096;-82
2023/09/08 09:26:25;;;;;;;1.25;0.68;;;;;;;;;;5012371;28;20026;-83
2023/09/08 09:28:53;;;;;;;0.40;0.40;;;;;;;;;;5012569;28;20079;-83
2023/09/08 09:31:23;;;;;;;0.30;0.30;;;;;;;;;;5012608;28;20472;-82
2023/09/08 09:34:04;;;;;;;0.60;0.50;;;666.30;2099.20;;;;;;5012299;28;20045;-81
2023/09/08 09:36:30;;;;;;;0.40;0.40;;;666.20;2124.80;;;;;;5012820;28;20034;-85
2023/09/08 09:39:00;;;;;;;0.30;0.30;;;666.30;2124.80;;;;;;5012819;28;20026;-81
2023/09/08 09:41:29;;;;;;;0.68;0.65;;;691.30;2073.60;;;;;;5012367;28;20476;-83
2023/09/08 09:43:56;;;;;;;0.65;0.65;;;;;;;;;;5012863;28;20030;-82
2023/09/08 09:46:22;;;;;;;0.40;0.40;;;;;;;;;;5012346;28;20026;-82
2023/09/08 09:48:53;;;;;;;0.45;0.45;;;;;;;;;;5013562;28;20026;-80
2023/09/08 09:51:19;;;;;;;0.52;0.50;;;;;;;;;;5011623;28;20344;-82
2023/09/08 09:53:47;;;;;;;0.30;0.30;;;;;;;;;;5012162;28;20372;-81
2023/09/08 09:56:14;;;;;;;0.40;0.40;;;;;;;;;;5014870;28;20026;-84
2023/09/08 09:58:40;;;;;;;0.52;0.50;;;;;;;;;;5017083;28;20034;-83
2023/09/08 10:01:06;;;;;;;0.40;0.40;;;;;;;;;;5017750;28;20022;-84
2023/09/08 10:03:33;;;;;;;0.68;0.50;;;;;;;;;;5013423;28;20026;-83
2023/09/08 10:06:00;;;;;;;0.52;0.47;;;;;;;;;;5014086;28;20026;-82
2023/09/08 10:08:26;;;;;;;0.52;0.52;;;;;;;;;;5013770;28;20026;-84
2023/09/08 10:10:54;;;;;;;0.30;0.30;;;;;;;;;;5015283;28;20018;-83
2023/09/08 10:13:32;;;;;;;0.30;0.30;;;;;;;;;;5016589;28;20076;-83
2023/09/08 10:15:59;;;;;;;0.40;0.40;;;;;;;;;;5034790;28;20009;-82
2023/09/08 10:18:26;;;;;;;0.20;0.20;;;;;;;;;;5033184;28;20430;-84
2023/09/08 10:20:52;;;;;;;0.30;0.30;;;;;;;;;;5021117;28;20057;-84
2023/09/08 10:23:34;;;;;;;0.40;0.40;;;;;;;;;;5020391;28;20368;-83
2023/09/08 10:26:04;;;;;;;0.35;0.30;;;;;;;;;;5015476;28;20038;-83
2023/09/08 10:28:31;;;;;;;0.80;0.57;;;;;;;;;;5015594;28;20125;-83
2023/09/08 10:30:57;;;;;;;0.60;0.40;;;;;;;;;;5015506;28;20022;-85
2023/09/08 10:33:24;;;;;;;0.35;0.25;;;;;;;;;;5015679;28;20116;-81
2023/09/08 10:35:50;;;;;;;0.57;0.40;;;;;;;;;;5015353;28;20465;-82
2023/09/08 10:38:29;;;;;;;0.47;0.40;;;;;;;;;;5015053;28;20034;-81
2023/09/08 10:41:14;;;;;;;0.35;0.35;;;;;;;;;;5021764;28;20021;-82
2023/09/08 10:43:40;;;;;;;0.95;0.60;;;;;;;;;;5034767;28;20029;-81
2023/09/08 10:46:10;;;;;;;0.40;0.40;;;;;;;;;;5034776;28;20030;-82
2023/09/08 10:48:44;;;;;;;0.45;0.43;;;;;;;;;;5035789;28;20124;-82
2023/09/08 10:51:17;;;;;;;0.43;0.40;;;;;;;;;;5035619;28;20083;-82
2023/09/08 10:53:47;;;;;;;1.85;0.60;;;;;;;;;;5034475;28;20164;-83
2023/09/08 10:56:13;;;;;;;0.43;0.40;;;;;;;;;;5018481;28;20099;-82
2023/09/08 10:58:42;;;;;;;0.45;0.40;;;;;;;;;;5014796;28;20026;-82
2023/09/08 11:01:13;;;;;;;0.40;0.40;;;;;;;;;;5014921;28;20018;-81
2023/09/08 11:03:41;;;;;;;0.75;0.43;;;;;;;;;;5015150;28;20131;-83
2023/09/08 11:06:08;;;;;;;0.65;0.40;;;;;;;;;;5014334;28;20364;-81
2023/09/08 11:08:37;;;;;;;0.20;0.20;;;;;;;;;;5014163;28;20180;-82
2023/09/08 11:11:03;;;;;;;0.17;0.17;;;768.70;1868.80;;;;;;5014399;28;20104;-81
2023/09/08 11:13:29;;;;;;;0.22;0.22;;;;;;;;;;5014033;28;20169;-78
2023/09/08 11:15:56;;;;;;;0.32;0.32;;;;;;;;;;5014446;28;20048;-79
2023/09/08 11:18:28;;;;;;;0.20;0.20;;;;;;;;;;5015539;28;20069;-79
2023/09/08 11:20:55;;;;;;;0.52;0.52;;;;;;;;;;5014998;28;20029;-79
2023/09/08 11:23:24;;;;;;;0.28;0.28;;;;;;;;;;5015602;28;20041;-86
2023/09/08 11:25:51;;;;;;;0.30;0.30;;;;;;;;;;5014927;28;20040;-80
2023/09/08 11:28:19;;;;;;;0.10;0.10;;;;;;;;;;5016606;28;20452;-82
2023/09/08 11:30:47;;;;;;;0.20;0.20;;;;;;;;;;5014788;28;20026;-81
2023/09/08 11:33:17;;;;;;;0.25;0.22;;;;;;;;;;5014828;28;20121;-79
2023/09/08 11:35:45;;;;;;;0.30;0.30;;;;;;;;;;5014395;28;20053;-80
2023/09/08 11:38:11;;;;;;;0.20;0.20;;;;;;;;;;5014104;28;20025;-81
2023/09/08 11:40:38;;;;;;;0.60;0.28;;;;;;;;;;5020941;28;20021;-81
2023/09/08 11:43:05;;;;;;;0.22;0.22;;;;;;;;;;5035570;28;20039;-79
2023/09/08 11:45:34;;;;;;;1.30;0.45;;;;;;;;;;5033532;28;20044;-83
2023/09/08 11:48:00;;;;;;;0.20;0.20;;;;;;;;;;5033194;28;20401;-79
2023/09/08 11:50:26;;;;;;;1.05;0.40;;;;;;;;;;5033587;28;20470;-80
2023/09/08 11:52:55;;;;;;;0.28;0.28;;;;;;;;;;5033492;28;20017;-80
2023/09/08 11:55:23;;;;;;;0.45;0.40;;;;;;;;;;5033081;28;20045;-79
2023/09/08 11:57:50;;;;;;;0.10;0.10;;;;;;;;;;5033145;28;20017;-80
2023/09/08 12:00:18;;;;;;;1.42;0.70;;;;;;;;;;5032931;28;20063;-80
2023/09/08 12:02:45;;;;;;;0.63;0.40;;;;;;;;;;5033106;28;20482;-79
2023/09/08 12:05:22;;;;;;;0.43;0.30;;;;;;;;;;5031878;28;20021;-79
2023/09/08 12:07:48;;;;;;;0.45;0.35;;;;;;;;;;5032095;28;20036;-79
2023/09/08 12:10:15;;;;;;;0.43;0.43;;;;;;;;;;5032449;28;20037;-80
2023/09/08 12:12:49;;;;;;;0.10;0.10;;;;;;;;;;5032515;28;20017;-79
2023/09/08 12:15:33;;;;;;;0.50;0.30;;;;;;;;;;5011818;28;20022;-80
2023/09/08 12:18:00;;;;;;;0.63;0.30;;;;;;;;;;5014156;28;20094;-80
2023/09/08 12:20:26;;;;;;;0.40;0.38;;;;;;;;;;5013193;28;20046;-81
2023/09/08 12:22:52;;;;;;;0.32;0.32;;;;;;;;;;5012961;28;20032;-81
2023/09/08 12:25:19;;;;;;;0.88;0.38;;;;;;;;;;5014632;28;20101;-79
2023/09/08 12:27:49;;;;;;;0.60;0.40;;;;;;;;;;5013014;28;20025;-78
2023/09/08 12:30:21;;;;;;;0.20;0.20;;;;;;;;;;5013614;28;20022;-79
2023/09/08 12:32:49;;;;;;;0.30;0.30;;;;;;;;;;5012946;28;20415;-79
2023/09/08 12:38:19;;;;;;;0.22;0.22;;;;;;;;;;5013977;28;20036;-80
2023/09/08 12:40:45;;;;;;;0.30;0.30;;;;;;;;;;5014015;28;20028;-79
2023/09/08 12:43:11;;;;;;;0.30;0.30;;;;;;;;;;5014137;28;20794;-80
2023/09/08 12:45:37;;;;;;;0.43;0.28;;;;;;;;;;5022574;28;20079;-80
2023/09/08 12:48:03;;;;;;;2.20;0.40;;;;;;;;;;5032447;28;20084;-81
2023/09/08 12:50:30;;;;;;;0.17;0.17;;;;;;;;;;5032183;28;20025;-78
2023/09/08 12:52:57;;;;;;;0.55;0.40;;;;;;;;;;5032390;28;20091;-80
2023/09/08 12:55:23;;;;;;;0.10;0.10;;;;;;;;;;5032174;28;20125;-79
2023/09/08 12:57:49;;;;;;;0.43;0.40;;;;;;;;;;5032199;28;20028;-80
2023/09/08 13:00:18;;;;;;;0.50;0.40;;;;;;;;;;5032291;28;20073;-79
2023/09/08 13:02:47;;;;;;;0.28;0.22;;;;;;;;;;5033388;28;20041;-79
2023/09/08 13:05:13;;;;;;;0.30;0.25;;;;;;;;;;5015048;28;20100;-80
2023/09/08 13:07:41;;;;;;;0.20;0.20;;;;;;;;;;5032266;28;20025;-81
2023/09/08 13:10:09;;;;;;;0.65;0.47;;;;;;;;;;5016967;28;20069;-78
2023/09/08 13:12:36;;;;;;;0.40;0.30;;;;;;;;;;5031980;28;20018;-77
2023/09/08 13:15:06;;;;;;;0.50;0.30;;;;;;;;;;5033498;28;20042;-79
2023/09/08 13:17:33;;;;;;;0.35;0.30;;;;;;;;;;5033070;28;20025;-79
2023/09/08 13:20:00;;;;;;;0.55;0.40;;;;;;;;;;5033608;28;20025;-79
2023/09/08 13:22:26;;;;;;;0.30;0.25;;;;;;;;;;5032223;28;20022;-79
2023/09/08 13:24:52;;;;;;;1.23;0.52;;;;;;;;;;5031940;28;20521;-78
2023/09/08 13:27:19;;;;;;;0.30;0.20;;;;;;;;;;5033544;28;20064;-79
2023/09/08 13:29:45;;;;;;;0.17;0.17;;;;;;;;;;5033496;28;20033;-80
2023/09/08 13:32:11;;;;;;;0.73;0.40;;;;;;;;;;5019618;28;20032;-80
2023/09/08 13:34:39;;;;;;;0.20;0.20;;;;;;;;;;5035910;28;20068;-80
2023/09/08 13:37:07;;;;;;;0.30;0.30;;;;;;;;;;5037955;28;20029;-80
2023/09/08 13:39:34;;;;;;;0.28;0.28;;;;;;;;;;5035834;28;20112;-79
2023/09/08 13:42:00;;;;;;;0.22;0.20;;;;;;;;;;5019846;28;20497;-82
2023/09/08 13:44:28;;;;;;;0.30;0.30;;;;;;;;;;5016646;28;20369;-80
2023/09/08 13:46:55;;;;;;;0.28;0.20;;;;;;;;;;5014622;28;20088;-80
2023/09/08 13:49:22;;;;;;;0.10;0.10;;;;;;;;;;5014999;28;20041;-80
2023/09/08 13:51:51;;;;;;;0.30;0.28;;;;;;;;;;4998083;28;20185;-80
2023/09/08 13:54:20;;;;;;;0.20;0.15;;;;;;;;;;4981896;28;20450;-81
2023/09/08 13:56:58;;;;;;;1.10;0.35;;;;;;;;;;5000918;28;20042;-82
2023/09/08 13:59:24;;;;;;;0.32;0.22;;;;;;;;;;5023832;28;20061;-81
2023/09/08 14:01:54;;;;;;;0.10;0.10;;;;;;;;;;5006440;28;20026;-80
2023/09/08 14:04:21;;;;;;;0.75;0.40;;;;;;;;;;4999350;28;20077;-80
2023/09/08 14:06:48;;;;;;;0.45;0.30;;;;;;;;;;4983043;28;20026;-80
2023/09/08 14:09:16;;;;;;;1.02;0.43;;;;;;;;;;4998096;28;20041;-80
2023/09/08 14:11:43;;;;;;;0.73;0.30;;;;;;;;;;4998192;28;20026;-81
2023/09/08 14:14:10;;;;;;;0.73;0.63;;;;;;;;;;4998156;28;20534;-78
2023/09/08 14:16:38;;;;;;;0.82;0.50;;;;;;;;;;5036717;28;20113;-79
2023/09/08 14:19:05;;;;;;;0.38;0.30;;;;;;;;;;5034383;28;20033;-79
2023/09/08 14:21:32;;;;;;;0.73;0.40;;;;;;;;;;5017347;28;20034;-80
2023/09/08 14:24:00;;;;;;;0.68;0.40;;;;;;;;;;5034390;28;20513;-79
2023/09/08 14:26:26;;;;;;;0.60;0.43;;;;;;;;;;5017411;28;20041;-79
2023/09/08 14:28:53;;;;;;;0.25;0.25;;;;;;;;;;5017347;28;20115;-81
2023/09/08 14:33:55;;;;;;;0.77;0.50;;;;;;;;;;5085603;23;20064;-82
2023/09/08 14:36:21;;;;;;;0.30;0.30;;;;;;;;;;5038475;28;20074;-81
2023/09/08 14:38:47;;;;;;;0.22;0.22;;;;;;;;;;5038344;28;20032;-80